createdAt,value
2023-03-21T00:01:27.777Z,18.38
2023-03-21T00:11:33.881Z,18.35
2023-03-21T00:21:52.225Z,18.35
2023-03-21T00:31:51.468Z,18.34
2023-03-21T00:41:57.566Z,18.34
2023-03-21T00:52:15.809Z,18.34
2023-03-21T01:02:14.449Z,18.36
2023-03-21T01:12:19.180Z,18.36
2023-03-21T01:22:24.430Z,18.36
2023-03-21T01:32:29.852Z,18.32
2023-03-21T01:42:35.308Z,18.34
2023-03-21T01:52:40.792Z,18.36
2023-03-21T02:02:46.543Z,18.39
2023-03-21T02:12:51.958Z,18.39
2023-03-21T02:22:57.926Z,18.38
2023-03-21T02:33:03.456Z,18.35
2023-03-21T02:43:14.140Z,18.38
2023-03-21T02:53:19.649Z,18.38
2023-03-21T03:03:34.000Z,18.39
2023-03-21T03:13:35.784Z,18.39
2023-03-21T03:23:41.565Z,18.39
2023-03-21T03:33:47.230Z,18.39
2023-03-21T03:43:53.024Z,18.39
2023-03-21T03:53:58.554Z,18.41
2023-03-21T04:04:13.026Z,18.41
2023-03-21T04:14:14.933Z,18.40
2023-03-21T04:24:20.694Z,18.39
2023-03-21T04:34:26.537Z,18.39
2023-03-21T04:44:31.977Z,18.39
2023-03-21T04:54:37.721Z,18.42
2023-03-21T05:04:43.645Z,18.41
2023-03-21T05:14:49.496Z,18.42
2023-03-21T05:24:54.924Z,18.42
2023-03-21T05:35:00.416Z,18.52
2023-03-21T05:45:03.222Z,18.23
2023-03-21T05:55:09.315Z,15.22
2023-03-21T06:05:17.091Z,16.94
2023-03-21T06:15:23.806Z,17.60
2023-03-21T06:25:29.834Z,17.84
2023-03-21T06:35:35.476Z,17.52
2023-03-21T06:45:41.805Z,17.55
2023-03-21T06:55:47.711Z,17.75
2023-03-21T07:05:53.265Z,17.75
2023-03-21T07:15:59.757Z,18.00
2023-03-21T07:26:05.508Z,18.00
2023-03-21T07:36:11.206Z,18.17
2023-03-21T07:46:18.744Z,18.17
2023-03-21T07:56:24.897Z,18.38
2023-03-21T08:06:30.795Z,18.38
2023-03-21T08:17:58.296Z,18.81
2023-03-21T08:28:03.579Z,18.86
2023-03-21T08:38:09.595Z,19.05
2023-03-21T08:48:15.323Z,19.05
2023-03-21T08:58:21.028Z,19.62
2023-03-21T09:08:27.007Z,19.62
2023-03-21T09:18:32.796Z,19.77
2023-03-21T09:28:38.740Z,20.88
2023-03-21T09:38:44.357Z,22.41
2023-03-21T09:48:57.077Z,26.44
2023-03-21T09:59:05.500Z,27.88
2023-03-21T10:09:11.128Z,26.59
2023-03-21T10:19:15.929Z,23.72
2023-03-21T10:29:20.451Z,22.27
2023-03-21T10:39:25.940Z,22.55
2023-03-21T10:49:40.217Z,22.55
2023-03-21T10:59:42.711Z,22.88
2023-03-21T11:09:49.099Z,21.70
2023-03-21T11:19:54.650Z,21.08
2023-03-21T11:30:00.295Z,20.77
2023-03-21T11:40:05.714Z,20.77
2023-03-21T11:50:11.400Z,20.60
2023-03-21T12:00:16.959Z,20.49
2023-03-21T12:10:22.371Z,20.17
2023-03-21T12:20:28.368Z,19.78
2023-03-21T12:30:34.207Z,19.63
2023-03-21T12:40:39.872Z,19.63
2023-03-21T12:50:45.281Z,19.59
2023-03-21T13:00:50.900Z,19.46
2023-03-21T13:10:58.155Z,19.48
2023-03-21T13:21:05.386Z,19.41
2023-03-21T13:31:10.820Z,19.34
2023-03-21T13:41:16.260Z,19.34
2023-03-21T13:51:21.787Z,19.23
2023-03-21T14:01:27.839Z,19.23
2023-03-21T14:11:33.511Z,19.17
2023-03-21T14:21:39.153Z,19.16
2023-03-21T14:31:44.632Z,19.13
2023-03-21T14:41:50.491Z,19.10
2023-03-21T14:51:56.063Z,19.07
2023-03-21T15:02:01.491Z,19.07
2023-03-21T15:12:07.141Z,19.07
2023-03-21T15:22:12.885Z,18.99
2023-03-21T15:32:19.722Z,18.96
2023-03-21T15:42:25.072Z,18.94
2023-03-21T15:52:30.823Z,18.90
2023-03-21T16:02:37.321Z,18.86
2023-03-21T16:12:43.467Z,18.85
2023-03-21T16:22:50.994Z,18.85
2023-03-21T16:32:56.881Z,18.78
2023-03-21T16:43:03.491Z,18.78
2023-03-21T16:53:09.446Z,18.72
2023-03-21T17:03:15.438Z,18.70
2023-03-21T17:13:21.373Z,18.70
2023-03-21T17:23:27.419Z,18.68
2023-03-21T17:33:33.159Z,18.68
2023-03-21T17:43:38.881Z,18.63
2023-03-21T17:53:44.600Z,18.60
2023-03-21T18:03:50.553Z,18.60
2023-03-21T18:14:09.935Z,18.58
2023-03-21T18:24:07.119Z,18.58
2023-03-21T18:34:12.923Z,18.58
2023-03-21T18:44:25.008Z,18.55
2023-03-21T18:54:29.304Z,18.54
2023-03-21T19:04:34.957Z,18.54
2023-03-21T19:14:41.049Z,18.52
2023-03-21T19:24:47.191Z,18.52
2023-03-21T19:34:53.332Z,18.50
2023-03-21T19:45:01.130Z,18.50
2023-03-21T19:55:06.126Z,16.60
2023-03-21T20:05:11.801Z,15.70
2023-03-21T20:15:21.511Z,17.55
2023-03-21T20:25:28.801Z,17.92
2023-03-21T20:36:22.876Z,17.92
2023-03-21T20:45:46.348Z,18.20
2023-03-21T20:55:52.492Z,18.20
2023-03-21T21:05:58.873Z,18.36
2023-03-21T21:16:04.951Z,18.36
2023-03-21T21:26:11.469Z,18.38
2023-03-21T21:36:17.933Z,18.40
2023-03-21T21:46:24.308Z,18.40
2023-03-21T21:56:31.692Z,18.34
2023-03-21T22:06:37.851Z,18.34
2023-03-21T22:16:43.942Z,18.36
2023-03-21T22:26:50.169Z,18.42
2023-03-21T22:36:56.755Z,18.46
2023-03-21T22:47:02.911Z,18.44
2023-03-21T22:57:08.904Z,18.44
2023-03-21T23:07:15.450Z,18.44
2023-03-21T23:17:21.580Z,18.44
2023-03-21T23:27:27.987Z,18.42
2023-03-21T23:37:33.987Z,18.42
2023-03-21T23:47:40.132Z,18.40
2023-03-21T23:57:46.235Z,18.41
